Wolke Sonne

Wetter Ammerndorf

Gehe zu: Roßtal

Tageswerte vom Mittwoch, 30.03.2022

Optionen

Tag:
Erweitert:

Alle Werte vom Mittwoch, 30.03.2022

Einen Moment bitte, die Daten werden aufbereitet...

UhrzeitTemperaturBoden 10cmBoden 20cmFeuchteLuftdruckNiederschlagEvapotranspirationWindWindböenWindrichtungSolarstrahlungUV-IndexSonne?Uhrzeit
Diagramm IconDiagramm IconDiagramm IconDiagramm IconDiagramm IconDiagramm IconDiagramm IconDiagramm IconDiagramm IconDiagramm IconDiagramm IconDiagramm IconDiagramm Icon
00:008,2 °C 7,8 °C 7,8 °C 82 % 1006,0 hPa 0,0 mm - 0,0 km/h 1,4 km/h WSW 0,0 W/qm 0,0 nein 00:00
00:058,2 °C 7,8 °C 7,8 °C 82 % 1006,0 hPa 0,0 mm 0,0 mm 0,0 km/h 1,4 km/h WSW 0,0 W/qm 0,0 nein 00:05
00:107,9 °C 7,8 °C 7,8 °C 84 % 1005,9 hPa 0,0 mm 0,0 mm 1,4 km/h 1,4 km/h NO 0,0 W/qm 0,0 nein 00:10
00:157,8 °C 7,8 °C 7,8 °C 85 % 1005,9 hPa 0,0 mm - 3,2 km/h 6,5 km/h NO 0,0 W/qm 0,0 nein 00:15
00:207,6 °C 7,8 °C 7,8 °C 86 % 1005,9 hPa 0,0 mm - 1,4 km/h 6,5 km/h NO 0,0 W/qm 0,0 nein 00:20
00:257,7 °C 7,8 °C 7,8 °C 87 % 1005,7 hPa 0,2 mm - 0,0 km/h 6,5 km/h NO 0,0 W/qm 0,0 nein 00:25
00:307,5 °C 7,8 °C 7,8 °C 88 % 1005,7 hPa 0,0 mm - 0,0 km/h 4,7 km/h NO 0,0 W/qm 0,0 nein 00:30
00:357,6 °C 7,8 °C 7,8 °C 89 % 1005,7 hPa 0,0 mm - 0,0 km/h 0,0 km/h OSO 0,0 W/qm 0,0 nein 00:35
00:407,4 °C 7,8 °C 7,8 °C 89 % 1005,6 hPa 0,0 mm - 0,0 km/h 3,2 km/h OSO 0,0 W/qm 0,0 nein 00:40
00:457,3 °C 7,8 °C 7,8 °C 89 % 1005,5 hPa 0,0 mm - 0,0 km/h 3,2 km/h OSO 0,0 W/qm 0,0 nein 00:45
00:507,2 °C 7,8 °C 7,8 °C 90 % 1005,5 hPa 0,0 mm - 1,4 km/h 3,2 km/h OSO 0,0 W/qm 0,0 nein 00:50
00:557,2 °C 7,8 °C 7,8 °C 90 % 1005,5 hPa 0,0 mm - 0,0 km/h 4,7 km/h OSO 0,0 W/qm 0,0 nein 00:55
01:007,1 °C 7,8 °C 7,8 °C 90 % 1005,4 hPa 0,0 mm - 0,0 km/h 4,7 km/h OSO 0,0 W/qm 0,0 nein 01:00
01:056,9 °C 7,8 °C 7,8 °C 90 % 1005,4 hPa 0,0 mm 0,0 mm 0,0 km/h 3,2 km/h OSO 0,0 W/qm 0,0 nein 01:05
01:107,1 °C 7,8 °C 7,8 °C 91 % 1005,4 hPa 0,0 mm 0,0 mm 0,0 km/h 3,2 km/h SO 0,0 W/qm 0,0 nein 01:10
01:157,2 °C 7,8 °C 7,8 °C 91 % 1005,4 hPa 0,0 mm - 0,0 km/h 3,2 km/h SO 0,0 W/qm 0,0 nein 01:15
01:207,2 °C 7,8 °C 7,8 °C 90 % 1005,3 hPa 0,0 mm - 0,0 km/h 3,2 km/h SO 0,0 W/qm 0,0 nein 01:20
01:257,0 °C 7,8 °C 7,8 °C 90 % 1005,1 hPa 0,0 mm - 0,0 km/h 3,2 km/h SO 0,0 W/qm 0,0 nein 01:25
01:306,8 °C 7,8 °C 7,8 °C 91 % 1005,1 hPa 0,0 mm - 0,0 km/h 3,2 km/h SO 0,0 W/qm 0,0 nein 01:30
01:356,6 °C 7,8 °C 7,8 °C 90 % 1005,1 hPa 0,0 mm - 0,0 km/h 0,0 km/h SO 0,0 W/qm 0,0 nein 01:35
01:406,6 °C 7,8 °C 7,8 °C 91 % 1005,1 hPa 0,0 mm - 0,0 km/h 0,0 km/h SO 0,0 W/qm 0,0 nein 01:40
01:456,7 °C 7,8 °C 7,8 °C 91 % 1005,1 hPa 0,0 mm - 0,0 km/h 0,0 km/h SO 0,0 W/qm 0,0 nein 01:45
01:506,8 °C 7,8 °C 7,8 °C 91 % 1005,0 hPa 0,0 mm - 1,4 km/h 1,4 km/h SW 0,0 W/qm 0,0 nein 01:50
01:556,7 °C 7,8 °C 7,8 °C 91 % 1005,0 hPa 0,0 mm - 1,4 km/h 4,7 km/h WSW 0,0 W/qm 0,0 nein 01:55
UhrzeitTemperaturBoden 10cmBoden 20cmFeuchteLuftdruckNiederschlagEvapotranspirationWindWindböenWindrichtungSolarstrahlungUV-IndexSonne?Uhrzeit
02:006,6 °C 7,8 °C 7,8 °C 91 % 1004,9 hPa 0,0 mm - 1,4 km/h 4,7 km/h WSW 0,0 W/qm 0,0 nein 02:00
02:056,4 °C 7,8 °C 7,8 °C 91 % 1004,9 hPa 0,0 mm 0,0 mm 1,4 km/h 4,7 km/h NO 0,0 W/qm 0,0 nein 02:05
02:106,4 °C 7,8 °C 7,8 °C 91 % 1004,8 hPa 0,0 mm 0,0 mm 0,0 km/h 4,7 km/h NO 0,0 W/qm 0,0 nein 02:10
02:156,4 °C 7,8 °C 7,8 °C 92 % 1004,7 hPa 0,0 mm - 0,0 km/h 4,7 km/h NO 0,0 W/qm 0,0 nein 02:15
02:206,4 °C 7,8 °C 7,8 °C 92 % 1004,8 hPa 0,0 mm - 0,0 km/h 4,7 km/h S 0,0 W/qm 0,0 nein 02:20
02:256,7 °C 7,8 °C 7,8 °C 92 % 1004,7 hPa 0,0 mm - 0,0 km/h 3,2 km/h S 0,0 W/qm 0,0 nein 02:25
02:306,5 °C 7,8 °C 7,8 °C 91 % 1004,6 hPa 0,0 mm - 0,0 km/h 3,2 km/h S 0,0 W/qm 0,0 nein 02:30
02:356,3 °C 7,8 °C 7,8 °C 91 % 1004,6 hPa 0,0 mm - 0,0 km/h 3,2 km/h S 0,0 W/qm 0,0 nein 02:35
02:406,3 °C 7,8 °C 7,8 °C 92 % 1004,6 hPa 0,0 mm - 0,0 km/h 0,0 km/h S 0,0 W/qm 0,0 nein 02:40
02:456,4 °C 7,8 °C 7,8 °C 92 % 1004,5 hPa 0,0 mm - 0,0 km/h 0,0 km/h S 0,0 W/qm 0,0 nein 02:45
02:506,3 °C 7,8 °C 7,8 °C 91 % 1004,4 hPa 0,0 mm - 0,0 km/h 0,0 km/h S 0,0 W/qm 0,0 nein 02:50
02:556,1 °C 7,8 °C 7,8 °C 91 % 1004,4 hPa 0,0 mm - 0,0 km/h 0,0 km/h S 0,0 W/qm 0,0 nein 02:55
03:005,9 °C 7,8 °C 7,8 °C 91 % 1004,3 hPa 0,0 mm - 0,0 km/h 0,0 km/h S 0,0 W/qm 0,0 nein 03:00
03:055,8 °C 7,8 °C 7,8 °C 91 % 1004,4 hPa 0,0 mm 0,0 mm 0,0 km/h 0,0 km/h S 0,0 W/qm 0,0 nein 03:05
03:105,6 °C 7,8 °C 7,8 °C 91 % 1004,3 hPa 0,0 mm 0,0 mm 0,0 km/h 0,0 km/h S 0,0 W/qm 0,0 nein 03:10
03:155,3 °C 7,8 °C 7,8 °C 91 % 1004,3 hPa 0,0 mm - 0,0 km/h 0,0 km/h S 0,0 W/qm 0,0 nein 03:15
03:205,3 °C 7,8 °C 7,8 °C 92 % 1004,2 hPa 0,0 mm - 0,0 km/h 0,0 km/h S 0,0 W/qm 0,0 nein 03:20
03:255,2 °C 7,8 °C 7,8 °C 92 % 1004,1 hPa 0,0 mm - 0,0 km/h 0,0 km/h S 0,0 W/qm 0,0 nein 03:25
03:305,2 °C 7,8 °C 7,8 °C 92 % 1004,1 hPa 0,0 mm - 0,0 km/h 0,0 km/h S 0,0 W/qm 0,0 nein 03:30
03:355,2 °C 7,8 °C 7,8 °C 92 % 1004,0 hPa 0,0 mm - 0,0 km/h 0,0 km/h S 0,0 W/qm 0,0 nein 03:35
03:405,3 °C 7,8 °C 7,8 °C 92 % 1003,9 hPa 0,0 mm - 0,0 km/h 0,0 km/h S 0,0 W/qm 0,0 nein 03:40
03:455,4 °C 7,8 °C 7,8 °C 92 % 1003,9 hPa 0,0 mm - 0,0 km/h 0,0 km/h S 0,0 W/qm 0,0 nein 03:45
03:505,4 °C 7,8 °C 7,8 °C 92 % 1003,8 hPa 0,0 mm - 0,0 km/h 3,2 km/h S 0,0 W/qm 0,0 nein 03:50
03:555,5 °C 7,8 °C 7,8 °C 92 % 1003,7 hPa 0,0 mm - 0,0 km/h 3,2 km/h S 0,0 W/qm 0,0 nein 03:55
UhrzeitTemperaturBoden 10cmBoden 20cmFeuchteLuftdruckNiederschlagEvapotranspirationWindWindböenWindrichtungSolarstrahlungUV-IndexSonne?Uhrzeit
04:005,6 °C 7,8 °C 7,8 °C 92 % 1003,7 hPa 0,0 mm - 0,0 km/h 3,2 km/h S 0,0 W/qm 0,0 nein 04:00
04:055,7 °C 7,8 °C 7,8 °C 92 % 1003,5 hPa 0,0 mm 0,0 mm 0,0 km/h 0,0 km/h S 0,0 W/qm 0,0 nein 04:05
04:105,7 °C 7,8 °C 7,8 °C 92 % 1003,4 hPa 0,0 mm 0,0 mm 0,0 km/h 0,0 km/h S 0,0 W/qm 0,0 nein 04:10
04:155,8 °C 7,8 °C 7,8 °C 92 % 1003,3 hPa 0,0 mm - 0,0 km/h 0,0 km/h S 0,0 W/qm 0,0 nein 04:15
04:205,8 °C 7,8 °C 7,8 °C 92 % 1003,2 hPa 0,0 mm - 0,0 km/h 0,0 km/h S 0,0 W/qm 0,0 nein 04:20
04:255,8 °C 7,8 °C 7,8 °C 92 % 1003,2 hPa 0,0 mm - 0,0 km/h 0,0 km/h S 0,0 W/qm 0,0 nein 04:25
04:305,7 °C 7,8 °C 7,8 °C 92 % 1003,2 hPa 0,0 mm - 0,0 km/h 0,0 km/h S 0,0 W/qm 0,0 nein 04:30
04:355,7 °C 7,8 °C 7,8 °C 92 % 1003,1 hPa 0,0 mm - 0,0 km/h 0,0 km/h S 0,0 W/qm 0,0 nein 04:35
04:405,7 °C 7,8 °C 7,8 °C 92 % 1003,2 hPa 0,0 mm - 0,0 km/h 0,0 km/h S 0,0 W/qm 0,0 nein 04:40
04:455,7 °C 7,8 °C 7,8 °C 92 % 1003,1 hPa 0,0 mm - 0,0 km/h 0,0 km/h S 0,0 W/qm 0,0 nein 04:45
04:505,7 °C 7,8 °C 7,8 °C 93 % 1003,1 hPa 0,0 mm - 0,0 km/h 0,0 km/h S 0,0 W/qm 0,0 nein 04:50
04:555,8 °C 7,8 °C 7,8 °C 93 % 1003,0 hPa 0,0 mm - 0,0 km/h 0,0 km/h S 0,0 W/qm 0,0 nein 04:55
05:005,9 °C 7,8 °C 7,8 °C 93 % 1002,9 hPa 0,0 mm - 0,0 km/h 0,0 km/h S 0,0 W/qm 0,0 nein 05:00
05:055,8 °C 7,8 °C 7,8 °C 92 % 1002,9 hPa 0,0 mm 0,0 mm 0,0 km/h 0,0 km/h S 0,0 W/qm 0,0 nein 05:05
05:105,9 °C 7,8 °C 7,8 °C 92 % 1002,8 hPa 0,0 mm 0,0 mm 0,0 km/h 0,0 km/h S 0,0 W/qm 0,0 nein 05:10
05:155,9 °C 7,8 °C 7,8 °C 92 % 1002,8 hPa 0,0 mm - 0,0 km/h 0,0 km/h S 0,0 W/qm 0,0 nein 05:15
05:205,9 °C 7,2 °C 7,8 °C 93 % 1002,8 hPa 0,0 mm - 0,0 km/h 0,0 km/h S 0,0 W/qm 0,0 nein 05:20
05:255,9 °C 7,2 °C 7,8 °C 92 % 1002,7 hPa 0,0 mm - 0,0 km/h 0,0 km/h S 0,0 W/qm 0,0 nein 05:25
05:305,8 °C 7,2 °C 7,8 °C 92 % 1002,7 hPa 0,0 mm - 0,0 km/h 0,0 km/h S 0,0 W/qm 0,0 nein 05:30
05:355,8 °C 7,2 °C 7,8 °C 92 % 1002,7 hPa 0,0 mm - 0,0 km/h 0,0 km/h S 0,0 W/qm 0,0 nein 05:35
05:405,8 °C 7,2 °C 7,8 °C 93 % 1002,7 hPa 0,0 mm - 0,0 km/h 0,0 km/h S 0,0 W/qm 0,0 nein 05:40
05:455,8 °C 7,2 °C 7,8 °C 93 % 1002,7 hPa 0,0 mm - 0,0 km/h 1,4 km/h S 0,0 W/qm 0,0 nein 05:45
05:505,9 °C 7,2 °C 7,2 °C 93 % 1002,6 hPa 0,0 mm - 0,0 km/h 1,4 km/h S 0,0 W/qm 0,0 nein 05:50
05:555,8 °C 7,2 °C 7,2 °C 93 % 1002,6 hPa 0,0 mm - 0,0 km/h 1,4 km/h S 0,0 W/qm 0,0 nein 05:55
UhrzeitTemperaturBoden 10cmBoden 20cmFeuchteLuftdruckNiederschlagEvapotranspirationWindWindböenWindrichtungSolarstrahlungUV-IndexSonne?Uhrzeit
06:005,8 °C 7,2 °C 7,2 °C 93 % 1002,5 hPa 0,0 mm - 0,0 km/h 0,0 km/h S 0,0 W/qm 0,0 nein 06:00
06:055,8 °C 7,2 °C 7,2 °C 93 % 1002,5 hPa 0,0 mm 0,0 mm 0,0 km/h 0,0 km/h S 0,0 W/qm 0,0 nein 06:05
06:105,8 °C 7,2 °C 7,2 °C 93 % 1002,4 hPa 0,0 mm 0,0 mm 0,0 km/h 0,0 km/h S 0,0 W/qm 0,0 nein 06:10
06:155,8 °C 7,2 °C 7,2 °C 93 % 1002,4 hPa 0,0 mm - 0,0 km/h 1,4 km/h S 0,0 W/qm 0,0 nein 06:15
06:205,8 °C 7,2 °C 7,2 °C 93 % 1002,4 hPa 0,0 mm - 0,0 km/h 3,2 km/h S 0,0 W/qm 0,0 nein 06:20
06:255,8 °C 7,2 °C 7,2 °C 93 % 1002,3 hPa 0,0 mm - 0,0 km/h 3,2 km/h S 0,0 W/qm 0,0 nein 06:25
06:305,8 °C 7,2 °C 7,2 °C 93 % 1002,3 hPa 0,0 mm - 0,0 km/h 0,0 km/h S 0,0 W/qm 0,0 nein 06:30
06:355,9 °C 7,2 °C 7,2 °C 93 % 1002,2 hPa 0,0 mm - 0,0 km/h 0,0 km/h S 0,0 W/qm 0,0 nein 06:35
06:405,9 °C 7,2 °C 7,2 °C 93 % 1002,2 hPa 0,0 mm - 0,0 km/h 0,0 km/h S 0,0 W/qm 0,0 nein 06:40
06:456,0 °C 7,2 °C 7,2 °C 93 % 1002,1 hPa 0,0 mm - 0,0 km/h 0,0 km/h S 0,0 W/qm 0,0 nein 06:45
06:506,1 °C 7,2 °C 7,2 °C 93 % 1002,1 hPa 0,0 mm - 1,4 km/h 4,7 km/h S 0,0 W/qm 0,0 nein 06:50
06:556,2 °C 7,2 °C 7,2 °C 93 % 1002,0 hPa 0,0 mm - 1,4 km/h 4,7 km/h S 0,0 W/qm 0,0 nein 06:55
07:006,1 °C 7,2 °C 7,2 °C 92 % 1002,0 hPa 0,0 mm - 0,0 km/h 4,7 km/h S 0,0 W/qm 0,0 nein 07:00
07:056,0 °C 7,2 °C 7,2 °C 92 % 1001,9 hPa 0,0 mm 0,0 mm 0,0 km/h 4,7 km/h S 0,0 W/qm 0,0 nein 07:05
07:105,9 °C 7,2 °C 7,2 °C 92 % 1002,0 hPa 0,0 mm 0,0 mm 0,0 km/h 0,0 km/h S 5,0 W/qm 0,0 nein 07:10
07:156,0 °C 7,2 °C 7,2 °C 93 % 1001,8 hPa 0,0 mm - 0,0 km/h 0,0 km/h S 7,0 W/qm 0,0 nein 07:15
07:205,9 °C 7,2 °C 7,2 °C 92 % 1001,8 hPa 0,0 mm - 0,0 km/h 0,0 km/h S 9,0 W/qm 0,0 nein 07:20
07:256,0 °C 7,2 °C 7,2 °C 93 % 1001,9 hPa 0,0 mm - 0,0 km/h 0,0 km/h S 12,0 W/qm 0,0 nein 07:25
07:306,1 °C 7,2 °C 7,2 °C 93 % 1001,8 hPa 0,0 mm - 0,0 km/h 0,0 km/h S 14,0 W/qm 0,0 nein 07:30
07:356,1 °C 7,2 °C 7,2 °C 93 % 1001,8 hPa 0,0 mm - 0,0 km/h 0,0 km/h S 18,0 W/qm 0,0 nein 07:35
07:406,2 °C 7,2 °C 7,2 °C 93 % 1001,8 hPa 0,0 mm - 0,0 km/h 0,0 km/h S 23,0 W/qm 0,0 nein 07:40
07:456,2 °C 7,2 °C 7,2 °C 93 % 1001,8 hPa 0,0 mm - 0,0 km/h 0,0 km/h S 28,0 W/qm 0,0 nein 07:45
07:506,2 °C 7,2 °C 7,2 °C 93 % 1001,7 hPa 0,0 mm - 0,0 km/h 0,0 km/h S 33,0 W/qm 0,0 nein 07:50
07:556,3 °C 7,2 °C 7,2 °C 93 % 1001,7 hPa 0,0 mm - 0,0 km/h 0,0 km/h S 33,0 W/qm 0,0 nein 07:55
UhrzeitTemperaturBoden 10cmBoden 20cmFeuchteLuftdruckNiederschlagEvapotranspirationWindWindböenWindrichtungSolarstrahlungUV-IndexSonne?Uhrzeit
08:006,4 °C 7,2 °C 7,2 °C 93 % 1001,8 hPa 0,0 mm - 0,0 km/h 0,0 km/h S 35,0 W/qm 0,0 nein 08:00
08:056,5 °C 7,2 °C 7,2 °C 93 % 1001,8 hPa 0,0 mm 0,0 mm 0,0 km/h 0,0 km/h S 33,0 W/qm 0,0 nein 08:05
08:106,4 °C 7,2 °C 7,2 °C 93 % 1001,8 hPa 0,0 mm 0,0 mm 0,0 km/h 0,0 km/h S 33,0 W/qm 0,0 nein 08:10
08:156,5 °C 7,2 °C 7,2 °C 93 % 1001,7 hPa 0,2 mm - 0,0 km/h 0,0 km/h S 33,0 W/qm 0,0 nein 08:15
08:206,6 °C 7,2 °C 7,2 °C 93 % 1001,6 hPa 0,0 mm - 0,0 km/h 3,2 km/h S 39,0 W/qm 0,0 nein 08:20
08:256,7 °C 7,2 °C 7,2 °C 93 % 1001,5 hPa 0,0 mm - 0,0 km/h 3,2 km/h S 49,0 W/qm 0,0 nein 08:25
08:306,7 °C 7,2 °C 7,2 °C 93 % 1001,6 hPa 0,0 mm - 0,0 km/h 3,2 km/h S 49,0 W/qm 0,0 nein 08:30
08:356,7 °C 7,2 °C 7,2 °C 93 % 1001,6 hPa 0,0 mm - 0,0 km/h 0,0 km/h S 49,0 W/qm 0,0 nein 08:35
08:406,8 °C 7,2 °C 7,2 °C 93 % 1001,7 hPa 0,0 mm - 3,2 km/h 0,0 km/h W 58,0 W/qm 0,0 nein 08:40
08:456,9 °C 7,2 °C 7,2 °C 93 % 1001,7 hPa 0,0 mm - 3,2 km/h 7,9 km/h W 63,0 W/qm 0,0 nein 08:45
08:507,0 °C 7,2 °C 7,2 °C 93 % 1001,7 hPa 0,0 mm - 0,0 km/h 7,9 km/h W 65,0 W/qm 0,0 nein 08:50
08:557,1 °C 7,2 °C 7,2 °C 93 % 1001,7 hPa 0,0 mm - 0,0 km/h 7,9 km/h W 62,0 W/qm 0,0 nein 08:55
09:007,2 °C 7,2 °C 7,2 °C 93 % 1001,7 hPa 0,0 mm - 0,0 km/h 3,2 km/h W 49,0 W/qm 0,0 nein 09:00
09:057,2 °C 7,2 °C 7,2 °C 93 % 1001,7 hPa 0,0 mm 0,0 mm 0,0 km/h 3,2 km/h WSW 42,0 W/qm 0,0 nein 09:05
09:107,3 °C 7,2 °C 7,2 °C 92 % 1001,6 hPa 0,0 mm 0,0 mm 0,0 km/h 3,2 km/h WSW 47,0 W/qm 0,0 nein 09:10
09:157,2 °C 7,2 °C 7,2 °C 92 % 1001,5 hPa 0,0 mm - 0,0 km/h 1,4 km/h WSW 51,0 W/qm 0,0 nein 09:15
09:207,3 °C 7,2 °C 7,2 °C 92 % 1001,6 hPa 0,0 mm - 0,0 km/h 1,4 km/h WSW 56,0 W/qm 0,0 nein 09:20
09:257,3 °C 7,2 °C 7,2 °C 92 % 1001,6 hPa 0,0 mm - 0,0 km/h 1,4 km/h WSW 67,0 W/qm 0,0 nein 09:25
09:307,3 °C 7,2 °C 7,2 °C 92 % 1001,6 hPa 0,0 mm - 1,4 km/h 3,2 km/h WSW 74,0 W/qm 0,0 nein 09:30
09:357,2 °C 7,2 °C 7,2 °C 92 % 1001,7 hPa 0,0 mm - 1,4 km/h 4,7 km/h WSW 79,0 W/qm 0,0 nein 09:35
09:407,3 °C 7,2 °C 7,2 °C 92 % 1001,6 hPa 0,0 mm - 0,0 km/h 4,7 km/h W 74,0 W/qm 0,0 nein 09:40
09:457,3 °C 7,2 °C 7,2 °C 92 % 1001,6 hPa 0,0 mm - 1,4 km/h 4,7 km/h SW 74,0 W/qm 0,0 nein 09:45
09:507,2 °C 7,2 °C 7,2 °C 91 % 1001,6 hPa 0,0 mm - 1,4 km/h 7,9 km/h SSW 83,0 W/qm 0,0 nein 09:50
09:557,3 °C 7,2 °C 7,2 °C 91 % 1001,5 hPa 0,0 mm - 0,0 km/h 7,9 km/h SSW 98,0 W/qm 0,0 nein 09:55
UhrzeitTemperaturBoden 10cmBoden 20cmFeuchteLuftdruckNiederschlagEvapotranspirationWindWindböenWindrichtungSolarstrahlungUV-IndexSonne?Uhrzeit
10:007,4 °C 7,2 °C 7,2 °C 92 % 1001,5 hPa 0,2 mm - 0,0 km/h 7,9 km/h SSW 105,0 W/qm 0,0 nein 10:00
10:057,5 °C 7,2 °C 7,2 °C 92 % 1001,4 hPa 0,0 mm 0,1 mm 0,0 km/h 3,2 km/h SSW 107,0 W/qm 0,0 nein 10:05
10:107,6 °C 7,2 °C 7,2 °C 92 % 1001,4 hPa 0,0 mm 0,1 mm 0,0 km/h 0,0 km/h SSW 109,0 W/qm 0,0 nein 10:10
10:157,6 °C 7,2 °C 7,2 °C 91 % 1001,4 hPa 0,0 mm - 0,0 km/h 0,0 km/h SSW 109,0 W/qm 0,0 nein 10:15
10:207,5 °C 7,2 °C 7,2 °C 91 % 1001,4 hPa 0,2 mm - 1,4 km/h 4,7 km/h SW 111,0 W/qm 0,0 nein 10:20
10:257,6 °C 7,2 °C 7,2 °C 91 % 1001,4 hPa 0,0 mm - 1,4 km/h 6,5 km/h SW 118,0 W/qm 0,0 nein 10:25
10:307,5 °C 7,2 °C 7,2 °C 91 % 1001,4 hPa 0,0 mm - 1,4 km/h 6,5 km/h S 116,0 W/qm 0,0 nein 10:30
10:357,6 °C 7,2 °C 7,2 °C 92 % 1001,3 hPa 0,0 mm - 1,4 km/h 6,5 km/h S 116,0 W/qm 0,0 nein 10:35
10:407,7 °C 7,2 °C 7,2 °C 92 % 1001,4 hPa 0,2 mm - 1,4 km/h 4,7 km/h S 109,0 W/qm 0,0 nein 10:40
10:457,7 °C 7,2 °C 7,2 °C 92 % 1001,4 hPa 0,0 mm - 0,0 km/h 3,2 km/h S 86,0 W/qm 0,0 nein 10:45
10:507,8 °C 7,2 °C 7,2 °C 92 % 1001,4 hPa 0,0 mm - 1,4 km/h 3,2 km/h S 97,0 W/qm 0,0 nein 10:50
10:557,8 °C 7,2 °C 7,2 °C 92 % 1001,4 hPa 0,0 mm - 0,0 km/h 3,2 km/h S 79,0 W/qm 0,0 nein 10:55
11:007,8 °C 7,2 °C 7,2 °C 92 % 1001,4 hPa 0,0 mm - 0,0 km/h 4,7 km/h S 81,0 W/qm 0,0 nein 11:00
11:057,8 °C 7,2 °C 7,2 °C 92 % 1001,4 hPa 0,2 mm 0,1 mm 0,0 km/h 4,7 km/h S 84,0 W/qm 0,0 nein 11:05
11:107,8 °C 7,2 °C 7,2 °C 92 % 1001,3 hPa 0,0 mm 0,1 mm 0,0 km/h 3,2 km/h S 120,0 W/qm 0,0 nein 11:10
11:157,9 °C 7,2 °C 7,2 °C 92 % 1001,3 hPa 0,0 mm - 1,4 km/h 3,2 km/h SSW 134,0 W/qm 0,5 nein 11:15
11:207,9 °C 7,2 °C 7,2 °C 92 % 1001,3 hPa 0,0 mm - 1,4 km/h 4,7 km/h SSW 116,0 W/qm 0,0 nein 11:20
11:257,9 °C 7,2 °C 7,2 °C 92 % 1001,2 hPa 0,2 mm - 3,2 km/h 4,7 km/h SSW 91,0 W/qm 0,0 nein 11:25
11:307,9 °C 7,2 °C 7,2 °C 92 % 1001,2 hPa 0,0 mm - 1,4 km/h 4,7 km/h SSW 79,0 W/qm 0,0 nein 11:30
11:357,8 °C 7,2 °C 7,2 °C 92 % 1001,3 hPa 0,0 mm - 3,2 km/h 4,7 km/h S 91,0 W/qm 0,0 nein 11:35
11:407,8 °C 7,2 °C 7,2 °C 92 % 1001,1 hPa 0,0 mm - 3,2 km/h 6,5 km/h SW 77,0 W/qm 0,0 nein 11:40
11:457,7 °C 7,2 °C 7,2 °C 92 % 1001,2 hPa 0,2 mm - 1,4 km/h 7,9 km/h SW 81,0 W/qm 0,0 nein 11:45
11:507,7 °C 7,2 °C 7,2 °C 92 % 1001,1 hPa 0,0 mm - 0,0 km/h 7,9 km/h SW 102,0 W/qm 0,0 nein 11:50
11:557,8 °C 7,2 °C 7,2 °C 92 % 1001,0 hPa 0,0 mm - 0,0 km/h 7,9 km/h SW 90,0 W/qm 0,0 nein 11:55
UhrzeitTemperaturBoden 10cmBoden 20cmFeuchteLuftdruckNiederschlagEvapotranspirationWindWindböenWindrichtungSolarstrahlungUV-IndexSonne?Uhrzeit
12:007,8 °C 7,2 °C 7,2 °C 92 % 1000,9 hPa 0,0 mm - 0,0 km/h 3,2 km/h SW 95,0 W/qm 0,0 nein 12:00
12:057,8 °C 7,2 °C 7,2 °C 92 % 1000,9 hPa 0,2 mm 0,2 mm 0,0 km/h 3,2 km/h SW 95,0 W/qm 0,0 nein 12:05
12:107,8 °C 7,2 °C 7,2 °C 92 % 1000,9 hPa 0,0 mm 0,2 mm 0,0 km/h 3,2 km/h SW 88,0 W/qm 0,0 nein 12:10
12:157,9 °C 7,2 °C 7,2 °C 92 % 1000,8 hPa 0,0 mm - 0,0 km/h 0,0 km/h SW 98,0 W/qm 0,0 nein 12:15
12:207,9 °C 7,2 °C 7,2 °C 92 % 1000,7 hPa 0,0 mm - 0,0 km/h 0,0 km/h SW 93,0 W/qm 0,0 nein 12:20
12:258,0 °C 7,2 °C 7,2 °C 92 % 1000,6 hPa 0,2 mm - 0,0 km/h 3,2 km/h SW 109,0 W/qm 0,0 nein 12:25
12:308,0 °C 7,2 °C 7,2 °C 92 % 1000,6 hPa 0,0 mm - 0,0 km/h 3,2 km/h SW 123,0 W/qm 0,5 nein 12:30
12:358,1 °C 7,2 °C 7,2 °C 92 % 1000,6 hPa 0,0 mm - 0,0 km/h 3,2 km/h SW 114,0 W/qm 0,5 nein 12:35
12:408,0 °C 7,2 °C 7,2 °C 92 % 1000,4 hPa 0,0 mm - 0,0 km/h 0,0 km/h SW 113,0 W/qm 0,5 nein 12:40
12:458,1 °C 7,2 °C 7,2 °C 92 % 1000,4 hPa 0,2 mm - 1,4 km/h 0,0 km/h SW 102,0 W/qm 0,0 nein 12:45
12:508,1 °C 7,8 °C 7,2 °C 92 % 1000,4 hPa 0,0 mm - 1,4 km/h 4,7 km/h SW 146,0 W/qm 0,6 nein 12:50
12:558,3 °C 7,8 °C 7,2 °C 92 % 1000,3 hPa 0,0 mm - 0,0 km/h 4,7 km/h SW 165,0 W/qm 0,7 nein 12:55
13:008,4 °C 7,8 °C 7,2 °C 92 % 1000,3 hPa 0,0 mm - 1,4 km/h 4,7 km/h SW 207,0 W/qm 0,8 nein 13:00
13:058,5 °C 7,8 °C 7,2 °C 92 % 1000,3 hPa 0,2 mm 0,2 mm 1,4 km/h 4,7 km/h SW 221,0 W/qm 0,9 nein 13:05
13:108,6 °C 7,8 °C 7,2 °C 92 % 1000,2 hPa 0,0 mm 0,2 mm 0,0 km/h 4,7 km/h SW 183,0 W/qm 0,8 nein 13:10
13:158,4 °C 7,8 °C 7,2 °C 91 % 1000,1 hPa 0,0 mm - 0,0 km/h 4,7 km/h SW 206,0 W/qm 0,8 nein 13:15
13:208,6 °C 7,8 °C 7,2 °C 91 % 1000,0 hPa 0,0 mm - 0,0 km/h 4,7 km/h SW 262,0 W/qm 1,0 nein 13:20
13:258,9 °C 7,8 °C 7,2 °C 92 % 999,9 hPa 0,0 mm - 0,0 km/h 1,4 km/h SW 278,0 W/qm 1,1 ja 13:25
13:308,9 °C 7,8 °C 7,2 °C 91 % 999,7 hPa 0,0 mm - 0,0 km/h 3,2 km/h SW 149,0 W/qm 0,6 nein 13:30
13:358,9 °C 7,8 °C 7,2 °C 91 % 999,7 hPa 0,0 mm - 0,0 km/h 4,7 km/h SW 90,0 W/qm 0,0 nein 13:35
13:408,9 °C 7,8 °C 7,2 °C 90 % 999,6 hPa 0,0 mm - 0,0 km/h 4,7 km/h SW 53,0 W/qm 0,0 nein 13:40
13:458,8 °C 7,8 °C 7,2 °C 90 % 999,8 hPa 0,0 mm - 1,4 km/h 4,7 km/h SW 49,0 W/qm 0,0 nein 13:45
13:508,7 °C 7,8 °C 7,2 °C 90 % 999,7 hPa 0,0 mm - 1,4 km/h 4,7 km/h S 46,0 W/qm 0,0 nein 13:50
13:558,6 °C 7,8 °C 7,2 °C 90 % 999,7 hPa 0,0 mm - 1,4 km/h 4,7 km/h S 46,0 W/qm 0,0 nein 13:55
UhrzeitTemperaturBoden 10cmBoden 20cmFeuchteLuftdruckNiederschlagEvapotranspirationWindWindböenWindrichtungSolarstrahlungUV-IndexSonne?Uhrzeit
14:008,7 °C 7,8 °C 7,2 °C 90 % 999,7 hPa 0,0 mm - 1,4 km/h 4,7 km/h SSW 46,0 W/qm 0,0 nein 14:00
14:058,6 °C 7,8 °C 7,2 °C 90 % 999,7 hPa 0,0 mm 0,3 mm 0,0 km/h 4,7 km/h SSW 47,0 W/qm 0,0 nein 14:05
14:108,6 °C 7,8 °C 7,2 °C 91 % 999,7 hPa 0,0 mm 0,3 mm 0,0 km/h 4,7 km/h SSW 46,0 W/qm 0,0 nein 14:10
14:158,6 °C 7,8 °C 7,2 °C 91 % 999,7 hPa 0,0 mm - 0,0 km/h 4,7 km/h SSW 56,0 W/qm 0,0 nein 14:15
14:208,6 °C 7,8 °C 7,2 °C 91 % 999,6 hPa 0,0 mm - 0,0 km/h 0,0 km/h SSW 77,0 W/qm 0,0 nein 14:20
14:258,5 °C 7,8 °C 7,2 °C 91 % 999,6 hPa 0,0 mm - 0,0 km/h 0,0 km/h SSW 72,0 W/qm 0,0 nein 14:25
14:308,6 °C 7,8 °C 7,2 °C 91 % 999,5 hPa 0,0 mm - 0,0 km/h 1,4 km/h SSW 70,0 W/qm 0,0 nein 14:30
14:358,6 °C 7,8 °C 7,2 °C 91 % 999,4 hPa 0,0 mm - 0,0 km/h 4,7 km/h SSW 53,0 W/qm 0,0 nein 14:35
14:408,7 °C 7,8 °C 7,2 °C 91 % 999,4 hPa 0,0 mm - 0,0 km/h 4,7 km/h SSW 42,0 W/qm 0,0 nein 14:40
14:458,7 °C 7,8 °C 7,2 °C 90 % 999,4 hPa 0,0 mm - 0,0 km/h 4,7 km/h SSW 30,0 W/qm 0,0 nein 14:45
14:508,6 °C 7,8 °C 7,2 °C 90 % 999,3 hPa 0,0 mm - 0,0 km/h 4,7 km/h SSW 21,0 W/qm 0,0 nein 14:50
14:558,6 °C 7,8 °C 7,2 °C 91 % 999,3 hPa 0,0 mm - 0,0 km/h 4,7 km/h SSW 23,0 W/qm 0,0 nein 14:55
15:008,5 °C 7,8 °C 7,2 °C 91 % 999,3 hPa 0,0 mm - 0,0 km/h 3,2 km/h SSW 28,0 W/qm 0,0 nein 15:00
15:058,4 °C 7,8 °C 7,2 °C 91 % 999,3 hPa 0,0 mm 0,3 mm 0,0 km/h 0,0 km/h SSW 33,0 W/qm 0,0 nein 15:05
15:108,3 °C 7,8 °C 7,2 °C 92 % 999,3 hPa 0,0 mm 0,3 mm 0,0 km/h 0,0 km/h SSW 40,0 W/qm 0,0 nein 15:10
15:158,3 °C 7,8 °C 7,2 °C 92 % 999,3 hPa 0,0 mm - 0,0 km/h 0,0 km/h SSW 63,0 W/qm 0,0 nein 15:15
15:208,4 °C 7,8 °C 7,2 °C 92 % 999,1 hPa 0,0 mm - 0,0 km/h 0,0 km/h SSW 77,0 W/qm 0,0 nein 15:20
15:258,3 °C 7,8 °C 7,2 °C 92 % 999,2 hPa 0,0 mm - 0,0 km/h 0,0 km/h OSO 47,0 W/qm 0,0 nein 15:25
15:308,3 °C 7,8 °C 7,2 °C 92 % 999,0 hPa 0,0 mm - 0,0 km/h 3,2 km/h OSO 37,0 W/qm 0,0 nein 15:30
15:358,4 °C 7,8 °C 7,2 °C 92 % 999,0 hPa 0,0 mm - 0,0 km/h 3,2 km/h OSO 35,0 W/qm 0,0 nein 15:35
15:408,3 °C 7,8 °C 7,2 °C 92 % 999,0 hPa 0,0 mm - 0,0 km/h 3,2 km/h NW 32,0 W/qm 0,0 nein 15:40
15:458,3 °C 7,8 °C 7,2 °C 92 % 998,9 hPa 0,0 mm - 0,0 km/h 3,2 km/h NW 35,0 W/qm 0,0 nein 15:45
15:508,2 °C 7,8 °C 7,2 °C 91 % 998,9 hPa 0,0 mm - 1,4 km/h 3,2 km/h NW 37,0 W/qm 0,0 nein 15:50
15:558,1 °C 7,8 °C 7,2 °C 91 % 998,9 hPa 0,2 mm - 1,4 km/h 4,7 km/h N 35,0 W/qm 0,0 nein 15:55
UhrzeitTemperaturBoden 10cmBoden 20cmFeuchteLuftdruckNiederschlagEvapotranspirationWindWindböenWindrichtungSolarstrahlungUV-IndexSonne?Uhrzeit
16:008,1 °C 7,8 °C 7,2 °C 92 % 998,9 hPa 0,0 mm - 1,4 km/h 4,7 km/h NNO 40,0 W/qm 0,0 nein 16:00
16:058,1 °C 7,8 °C 7,2 °C 92 % 998,8 hPa 0,2 mm 0,3 mm 0,0 km/h 4,7 km/h NNO 53,0 W/qm 0,0 nein 16:05
16:108,0 °C 7,8 °C 7,2 °C 92 % 998,8 hPa 0,0 mm 0,3 mm 0,0 km/h 4,7 km/h NNO 72,0 W/qm 0,0 nein 16:10
16:158,0 °C 7,8 °C 7,2 °C 92 % 998,8 hPa 0,0 mm - 1,4 km/h 3,2 km/h ONO 67,0 W/qm 0,0 nein 16:15
16:207,9 °C 7,8 °C 7,2 °C 92 % 998,8 hPa 0,2 mm - 1,4 km/h 4,7 km/h ONO 65,0 W/qm 0,0 nein 16:20
16:257,8 °C 7,8 °C 7,2 °C 92 % 998,8 hPa 0,0 mm - 3,2 km/h 4,7 km/h ONO 67,0 W/qm 0,0 nein 16:25
16:307,7 °C 7,8 °C 7,2 °C 92 % 998,8 hPa 0,0 mm - 3,2 km/h 9,7 km/h NO 53,0 W/qm 0,0 nein 16:30
16:357,6 °C 7,8 °C 7,2 °C 92 % 998,9 hPa 0,0 mm - 1,4 km/h 9,7 km/h NNO 44,0 W/qm 0,0 nein 16:35
16:407,6 °C 7,8 °C 7,2 °C 92 % 998,9 hPa 0,0 mm - 1,4 km/h 9,7 km/h NNO 37,0 W/qm 0,0 nein 16:40
16:457,5 °C 7,8 °C 7,2 °C 92 % 998,9 hPa 0,0 mm - 0,0 km/h 6,5 km/h W 39,0 W/qm 0,0 nein 16:45
16:507,6 °C 7,8 °C 7,2 °C 92 % 998,9 hPa 0,0 mm - 1,4 km/h 6,5 km/h WSW 33,0 W/qm 0,0 nein 16:50
16:557,4 °C 7,8 °C 7,2 °C 92 % 998,9 hPa 0,0 mm - 0,0 km/h 6,5 km/h WSW 26,0 W/qm 0,0 nein 16:55
17:007,4 °C 7,8 °C 7,2 °C 92 % 998,9 hPa 0,0 mm - 0,0 km/h 6,5 km/h WSW 28,0 W/qm 0,0 nein 17:00
17:057,3 °C 7,8 °C 7,2 °C 92 % 998,9 hPa 0,0 mm 0,4 mm 0,0 km/h 6,5 km/h WSW 40,0 W/qm 0,0 nein 17:05
17:107,3 °C 7,8 °C 7,2 °C 92 % 998,9 hPa 0,0 mm 0,4 mm 0,0 km/h 3,2 km/h NNO 37,0 W/qm 0,0 nein 17:10
17:157,2 °C 7,8 °C 7,2 °C 92 % 998,9 hPa 0,0 mm - 0,0 km/h 3,2 km/h ONO 35,0 W/qm 0,0 nein 17:15
17:207,2 °C 7,8 °C 7,2 °C 92 % 998,8 hPa 0,0 mm - 0,0 km/h 3,2 km/h ONO 32,0 W/qm 0,0 nein 17:20
17:257,1 °C 7,8 °C 7,8 °C 92 % 999,0 hPa 0,2 mm - 0,0 km/h 3,2 km/h ONO 33,0 W/qm 0,0 nein 17:25
17:307,0 °C 7,8 °C 7,8 °C 92 % 998,9 hPa 0,0 mm - 0,0 km/h 3,2 km/h ONO 28,0 W/qm 0,0 nein 17:30
17:356,9 °C 7,8 °C 7,8 °C 92 % 998,9 hPa 0,0 mm - 0,0 km/h 3,2 km/h WNW 30,0 W/qm 0,0 nein 17:35
17:406,9 °C 7,8 °C 7,8 °C 92 % 998,9 hPa 0,0 mm - 0,0 km/h 3,2 km/h WNW 21,0 W/qm 0,0 nein 17:40
17:456,8 °C 7,8 °C 7,8 °C 92 % 998,9 hPa 0,0 mm - 0,0 km/h 3,2 km/h NO 14,0 W/qm 0,0 nein 17:45
17:506,9 °C 7,8 °C 7,8 °C 93 % 998,8 hPa 0,0 mm - 1,4 km/h 3,2 km/h ONO 23,0 W/qm 0,0 nein 17:50
17:556,8 °C 7,8 °C 7,8 °C 93 % 998,9 hPa 0,0 mm - 1,4 km/h 4,7 km/h ONO 33,0 W/qm 0,0 nein 17:55
UhrzeitTemperaturBoden 10cmBoden 20cmFeuchteLuftdruckNiederschlagEvapotranspirationWindWindböenWindrichtungSolarstrahlungUV-IndexSonne?Uhrzeit
18:006,8 °C 7,8 °C 7,8 °C 92 % 998,9 hPa 0,2 mm - 1,4 km/h 6,5 km/h NNO 42,0 W/qm 0,0 nein 18:00
18:056,7 °C 7,8 °C 7,8 °C 92 % 999,0 hPa 0,0 mm 0,4 mm 3,2 km/h 7,9 km/h NO 21,0 W/qm 0,0 nein 18:05
18:106,6 °C 7,8 °C 7,8 °C 93 % 999,0 hPa 0,0 mm 0,4 mm 4,7 km/h 11,2 km/h NO 21,0 W/qm 0,0 nein 18:10
18:156,5 °C 7,8 °C 7,8 °C 93 % 999,1 hPa 0,0 mm - 6,5 km/h 13,0 km/h NO 23,0 W/qm 0,0 nein 18:15
18:206,3 °C 7,8 °C 7,8 °C 92 % 999,1 hPa 0,0 mm - 6,5 km/h 13,0 km/h NO 30,0 W/qm 0,0 nein 18:20
18:256,2 °C 7,8 °C 7,8 °C 92 % 999,1 hPa 0,0 mm - 7,9 km/h 13,0 km/h NO 39,0 W/qm 0,0 nein 18:25
18:306,2 °C 7,8 °C 7,8 °C 92 % 999,1 hPa 0,0 mm - 7,9 km/h 13,0 km/h ONO 37,0 W/qm 0,0 nein 18:30
18:356,2 °C 7,8 °C 7,8 °C 93 % 999,1 hPa 0,0 mm - 4,7 km/h 13,0 km/h NO 40,0 W/qm 0,0 nein 18:35
18:406,1 °C 7,8 °C 7,8 °C 92 % 999,0 hPa 0,0 mm - 4,7 km/h 13,0 km/h ONO 35,0 W/qm 0,0 nein 18:40
18:456,0 °C 7,8 °C 7,8 °C 92 % 999,1 hPa 0,0 mm - 4,7 km/h 11,2 km/h NO 32,0 W/qm 0,0 nein 18:45
18:505,9 °C 7,8 °C 7,8 °C 92 % 999,1 hPa 0,0 mm - 4,7 km/h 11,2 km/h NO 32,0 W/qm 0,0 nein 18:50
18:555,8 °C 7,8 °C 7,8 °C 92 % 999,4 hPa 0,0 mm - 3,2 km/h 11,2 km/h N 21,0 W/qm 0,0 nein 18:55
19:005,8 °C 7,8 °C 7,8 °C 92 % 999,4 hPa 0,0 mm - 1,4 km/h 13,0 km/h NO 23,0 W/qm 0,0 nein 19:00
19:055,7 °C 7,8 °C 7,8 °C 92 % 999,4 hPa 0,0 mm 0,4 mm 1,4 km/h 13,0 km/h N 18,0 W/qm 0,0 nein 19:05
19:105,7 °C 7,8 °C 7,8 °C 92 % 999,4 hPa 0,0 mm 0,4 mm 1,4 km/h 13,0 km/h O 18,0 W/qm 0,0 nein 19:10
19:155,7 °C 7,8 °C 7,8 °C 92 % 999,3 hPa 0,0 mm - 1,4 km/h 7,9 km/h NO 21,0 W/qm 0,0 nein 19:15
19:205,7 °C 7,8 °C 7,8 °C 93 % 999,3 hPa 0,2 mm - 1,4 km/h 7,9 km/h ONO 14,0 W/qm 0,0 nein 19:20
19:255,6 °C 7,8 °C 7,8 °C 92 % 999,3 hPa 0,0 mm - 3,2 km/h 7,9 km/h NNW 11,0 W/qm 0,0 nein 19:25
19:305,6 °C 7,8 °C 7,8 °C 93 % 999,4 hPa 0,0 mm - 3,2 km/h 9,7 km/h NO 9,0 W/qm 0,0 nein 19:30
19:355,5 °C 7,8 °C 7,8 °C 93 % 999,5 hPa 0,0 mm - 3,2 km/h 9,7 km/h NNO 7,0 W/qm 0,0 nein 19:35
19:405,4 °C 7,8 °C 7,8 °C 93 % 999,5 hPa 0,0 mm - 3,2 km/h 9,7 km/h NNO 0,0 W/qm 0,0 nein 19:40
19:455,4 °C 7,8 °C 7,8 °C 93 % 999,5 hPa 0,0 mm - 1,4 km/h 9,7 km/h NW 0,0 W/qm 0,0 nein 19:45
19:505,4 °C 7,8 °C 7,8 °C 93 % 999,4 hPa 0,0 mm - 3,2 km/h 6,5 km/h NO 0,0 W/qm 0,0 nein 19:50
19:555,3 °C 7,8 °C 7,8 °C 93 % 999,4 hPa 0,0 mm - 1,4 km/h 6,5 km/h NNO 0,0 W/qm 0,0 nein 19:55
UhrzeitTemperaturBoden 10cmBoden 20cmFeuchteLuftdruckNiederschlagEvapotranspirationWindWindböenWindrichtungSolarstrahlungUV-IndexSonne?Uhrzeit
20:005,3 °C 7,8 °C 7,8 °C 93 % 999,5 hPa 0,0 mm - 1,4 km/h 11,2 km/h NO 0,0 W/qm 0,0 nein 20:00
20:055,3 °C 7,8 °C 7,8 °C 93 % 999,6 hPa 0,0 mm 0,4 mm 3,2 km/h 11,2 km/h OSO 0,0 W/qm 0,0 nein 20:05
20:105,2 °C 7,8 °C 7,8 °C 93 % 999,7 hPa 0,0 mm 0,4 mm 3,2 km/h 7,9 km/h O 0,0 W/qm 0,0 nein 20:10
20:155,1 °C 7,8 °C 7,8 °C 92 % 999,9 hPa 0,0 mm - 3,2 km/h 7,9 km/h NO 0,0 W/qm 0,0 nein 20:15
20:204,9 °C 7,8 °C 7,8 °C 92 % 999,9 hPa 0,0 mm - 3,2 km/h 7,9 km/h NO 0,0 W/qm 0,0 nein 20:20
20:254,9 °C 7,8 °C 7,8 °C 93 % 999,9 hPa 0,0 mm - 1,4 km/h 7,9 km/h NO 0,0 W/qm 0,0 nein 20:25
20:304,8 °C 7,8 °C 7,8 °C 93 % 999,9 hPa 0,0 mm - 3,2 km/h 7,9 km/h N 0,0 W/qm 0,0 nein 20:30
20:354,8 °C 7,8 °C 7,8 °C 93 % 1000,0 hPa 0,0 mm - 3,2 km/h 6,5 km/h N 0,0 W/qm 0,0 nein 20:35
20:404,8 °C 7,8 °C 7,8 °C 93 % 1000,0 hPa 0,0 mm - 3,2 km/h 7,9 km/h NO 0,0 W/qm 0,0 nein 20:40
20:454,7 °C 7,8 °C 7,8 °C 93 % 1000,0 hPa 0,0 mm - 3,2 km/h 11,2 km/h N 0,0 W/qm 0,0 nein 20:45
20:504,7 °C 7,8 °C 7,8 °C 93 % 1000,0 hPa 0,0 mm - 1,4 km/h 11,2 km/h ONO 0,0 W/qm 0,0 nein 20:50
20:554,7 °C 7,8 °C 7,8 °C 93 % 1000,0 hPa 0,0 mm - 0,0 km/h 7,9 km/h NW 0,0 W/qm 0,0 nein 20:55
21:004,6 °C 7,8 °C 7,8 °C 93 % 1000,2 hPa 0,0 mm - 0,0 km/h 6,5 km/h NW 0,0 W/qm 0,0 nein 21:00
21:054,6 °C 7,8 °C 7,8 °C 93 % 1000,2 hPa 0,0 mm 0,4 mm 0,0 km/h 6,5 km/h NNO 0,0 W/qm 0,0 nein 21:05
21:104,6 °C 7,8 °C 7,8 °C 93 % 1000,2 hPa 0,0 mm 0,4 mm 0,0 km/h 4,7 km/h NNO 0,0 W/qm 0,0 nein 21:10
21:154,6 °C 7,8 °C 7,8 °C 93 % 1000,2 hPa 0,0 mm - 1,4 km/h 4,7 km/h NO 0,0 W/qm 0,0 nein 21:15
21:204,6 °C 7,8 °C 7,8 °C 93 % 1000,2 hPa 0,0 mm - 1,4 km/h 6,5 km/h NO 0,0 W/qm 0,0 nein 21:20
21:254,5 °C 7,8 °C 7,8 °C 93 % 1000,3 hPa 0,0 mm - 1,4 km/h 6,5 km/h NO 0,0 W/qm 0,0 nein 21:25
21:304,5 °C 7,8 °C 7,8 °C 93 % 1000,3 hPa 0,0 mm - 1,4 km/h 6,5 km/h NO 0,0 W/qm 0,0 nein 21:30
21:354,5 °C 7,8 °C 7,2 °C 93 % 1000,3 hPa 0,0 mm - 1,4 km/h 7,9 km/h NNW 0,0 W/qm 0,0 nein 21:35
21:404,5 °C 7,2 °C 7,2 °C 93 % 1000,2 hPa 0,0 mm - 1,4 km/h 7,9 km/h N 0,0 W/qm 0,0 nein 21:40
21:454,4 °C 7,2 °C 7,2 °C 93 % 1000,2 hPa 0,0 mm - 3,2 km/h 11,2 km/h NNO 0,0 W/qm 0,0 nein 21:45
21:504,4 °C 7,2 °C 7,2 °C 93 % 1000,3 hPa 0,0 mm - 3,2 km/h 11,2 km/h ONO 0,0 W/qm 0,0 nein 21:50
21:554,4 °C 7,2 °C 7,2 °C 93 % 1000,3 hPa 0,0 mm - 3,2 km/h 11,2 km/h NO 0,0 W/qm 0,0 nein 21:55
UhrzeitTemperaturBoden 10cmBoden 20cmFeuchteLuftdruckNiederschlagEvapotranspirationWindWindböenWindrichtungSolarstrahlungUV-IndexSonne?Uhrzeit
22:004,3 °C 7,2 °C 7,2 °C 93 % 1000,2 hPa 0,0 mm - 3,2 km/h 9,7 km/h ONO 0,0 W/qm 0,0 nein 22:00
22:054,3 °C 7,2 °C 7,2 °C 93 % 1000,2 hPa 0,0 mm 0,4 mm 3,2 km/h 11,2 km/h ONO 0,0 W/qm 0,0 nein 22:05
22:104,3 °C 7,2 °C 7,2 °C 93 % 1000,3 hPa 0,0 mm 0,4 mm 1,4 km/h 11,2 km/h NNO 0,0 W/qm 0,0 nein 22:10
22:154,2 °C 7,2 °C 7,2 °C 93 % 1000,3 hPa 0,0 mm - 1,4 km/h 7,9 km/h ONO 0,0 W/qm 0,0 nein 22:15
22:204,2 °C 7,2 °C 7,2 °C 93 % 1000,3 hPa 0,0 mm - 3,2 km/h 7,9 km/h ONO 0,0 W/qm 0,0 nein 22:20
22:254,2 °C 7,2 °C 7,2 °C 93 % 1000,3 hPa 0,0 mm - 1,4 km/h 7,9 km/h NO 0,0 W/qm 0,0 nein 22:25
22:304,1 °C 7,2 °C 7,2 °C 93 % 1000,3 hPa 0,0 mm - 1,4 km/h 9,7 km/h NO 0,0 W/qm 0,0 nein 22:30
22:354,1 °C 7,2 °C 7,2 °C 93 % 1000,5 hPa 0,0 mm - 3,2 km/h 9,7 km/h NO 0,0 W/qm 0,0 nein 22:35
22:404,1 °C 7,2 °C 7,2 °C 93 % 1000,3 hPa 0,0 mm - 3,2 km/h 9,7 km/h NW 0,0 W/qm 0,0 nein 22:40
22:454,0 °C 7,2 °C 7,2 °C 93 % 1000,4 hPa 0,0 mm - 3,2 km/h 13,0 km/h NNO 0,0 W/qm 0,0 nein 22:45
22:504,0 °C 7,2 °C 7,2 °C 93 % 1000,4 hPa 0,0 mm - 3,2 km/h 13,0 km/h NO 0,0 W/qm 0,0 nein 22:50
22:553,9 °C 7,2 °C 7,2 °C 93 % 1000,4 hPa 0,0 mm - 3,2 km/h 7,9 km/h O 0,0 W/qm 0,0 nein 22:55
23:003,9 °C 7,2 °C 7,2 °C 93 % 1000,3 hPa 0,0 mm - 3,2 km/h 9,7 km/h ONO 0,0 W/qm 0,0 nein 23:00
23:053,9 °C 7,2 °C 7,2 °C 93 % 1000,3 hPa 0,0 mm 0,4 mm 4,7 km/h 11,2 km/h ONO 0,0 W/qm 0,0 nein 23:05
23:103,9 °C 7,2 °C 7,2 °C 93 % 1000,3 hPa 0,0 mm 0,4 mm 4,7 km/h 14,4 km/h NO 0,0 W/qm 0,0 nein 23:10
23:153,8 °C 7,2 °C 7,2 °C 93 % 1000,3 hPa 0,0 mm - 3,2 km/h 14,4 km/h NO 0,0 W/qm 0,0 nein 23:15
23:203,8 °C 7,2 °C 7,2 °C 93 % 1000,3 hPa 0,0 mm - 4,7 km/h 14,4 km/h ONO 0,0 W/qm 0,0 nein 23:20
23:253,8 °C 7,2 °C 7,2 °C 93 % 1000,3 hPa 0,0 mm - 4,7 km/h 11,2 km/h NO 0,0 W/qm 0,0 nein 23:25
23:303,8 °C 7,2 °C 7,2 °C 93 % 1000,3 hPa 0,0 mm - 4,7 km/h 11,2 km/h NO 0,0 W/qm 0,0 nein 23:30
23:353,8 °C 7,2 °C 7,2 °C 92 % 1000,3 hPa 0,0 mm - 4,7 km/h 11,2 km/h ONO 0,0 W/qm 0,0 nein 23:35
23:403,7 °C 7,2 °C 7,2 °C 92 % 1000,3 hPa 0,0 mm - 4,7 km/h 14,4 km/h NO 0,0 W/qm 0,0 nein 23:40
23:453,7 °C 7,2 °C 7,2 °C 92 % 1000,3 hPa 0,0 mm - 4,7 km/h 14,4 km/h NO 0,0 W/qm 0,0 nein 23:45
23:503,7 °C 7,2 °C 7,2 °C 92 % 1000,3 hPa 0,0 mm - 3,2 km/h 11,2 km/h NO 0,0 W/qm 0,0 nein 23:50
23:553,7 °C 7,2 °C 7,2 °C 92 % 1000,3 hPa 0,0 mm - 4,7 km/h 11,2 km/h NNO 0,0 W/qm 0,0 nein 23:55
Gesamt: 6,5 °C 7,6 °C 7,5 °C 92 % 1001,3 hPa 3,6 mm 8,5 mm 1,0 km/h 4,6 km/h 0 33,4 W/qm 0,0 ja

Insgesamt 288 Zeilen mal 13 Spalten = 3744 Werte werden angezeigt.

www.wetter-rosstal.de   •   www.wetter-franken.de   •   www.lightningmaps.org   •   Start   •   Kontakt / Datenschutz   •   PC-Kümmerer